Time;durP1;ratioP1;P1;durP2;ratioP2;P2;SDS_P1;SDS_P2;PMS_P1;PMS_P2;Temp;Humidity;BMP_temperature;BMP_pressure;BME280_temperature;BME280_humidity;BME280_pressure;Samples;Min_cycle;Max_cycle;Signal;HPM_P1;HPM_P2
2022/03/01 00:01:59;;;;;;;32.80;29.98;;;1.40;69.30;;;;;;5095188;28;20221;-69
2022/03/01 00:04:26;;;;;;;32.80;30.30;;;1.40;69.70;;;;;;5095162;28;20206;-70
2022/03/01 00:06:53;;;;;;;30.30;28.00;;;1.40;70.10;;;;;;5095026;28;20218;-70
2022/03/01 00:09:20;;;;;;;33.25;30.70;;;1.40;69.30;;;;;;5094957;28;20283;-70
2022/03/01 00:11:47;;;;;;;32.22;29.55;;;1.40;69.50;;;;;;5094981;28;20218;-70
2022/03/01 00:14:14;;;;;;;30.58;28.17;;;1.40;69.80;;;;;;5095078;28;20206;-71
2022/03/01 00:16:42;;;;;;;29.83;27.48;;;1.30;69.10;;;;;;5095103;28;20197;-72
2022/03/01 00:19:09;;;;;;;31.52;28.75;;;1.30;69.70;;;;;;5095054;28;20194;-71
2022/03/01 00:21:36;;;;;;;32.30;29.73;;;1.30;69.10;;;;;;5095008;28;20221;-72
2022/03/01 00:24:03;;;;;;;32.17;29.63;;;1.30;69.20;;;;;;5094750;28;20202;-72
2022/03/01 00:26:33;;;;;;;30.60;28.30;;;1.20;69.10;;;;;;5094639;28;20223;-72
2022/03/01 00:29:00;;;;;;;29.95;27.65;;;1.20;69.40;;;;;;5094211;28;20205;-72
2022/03/01 00:31:27;;;;;;;30.63;28.23;;;1.10;69.40;;;;;;5094643;28;20217;-72
2022/03/01 00:33:55;;;;;;;30.00;27.80;;;1.10;69.90;;;;;;5094600;28;20659;-72
2022/03/01 00:36:22;;;;;;;31.05;28.55;;;1.20;69.00;;;;;;5094682;28;20195;-72
2022/03/01 00:38:49;;;;;;;31.17;28.42;;;1.20;68.50;;;;;;5094567;28;20205;-72
2022/03/01 00:41:15;;;;;;;31.30;28.80;;;1.10;68.70;;;;;;5094145;28;20303;-71
2022/03/01 00:43:42;;;;;;;31.33;28.77;;;1.00;69.30;;;;;;5094511;28;20574;-72
2022/03/01 00:46:09;;;;;;;31.38;29.02;;;1.20;69.30;;;;;;5094436;28;20269;-72
2022/03/01 00:48:36;;;;;;;31.58;29.13;;;1.10;69.60;;;;;;5094454;28;20201;-72
2022/03/01 00:51:05;;;;;;;31.23;28.63;;;1.10;69.00;;;;;;5094039;28;20556;-72
2022/03/01 00:53:31;;;;;;;29.45;27.20;;;1.00;68.70;;;;;;5094581;28;20273;-72
2022/03/01 00:55:58;;;;;;;29.17;26.85;;;1.00;68.90;;;;;;5094315;28;20211;-72
2022/03/01 00:58:25;;;;;;;30.42;28.13;;;0.90;68.70;;;;;;5094102;28;20198;-71
2022/03/01 01:00:52;;;;;;;32.25;29.48;;;0.90;68.90;;;;;;5093875;28;20676;-72
2022/03/01 01:03:19;;;;;;;29.77;27.58;;;0.90;68.60;;;;;;5094336;28;20754;-72
2022/03/01 01:05:46;;;;;;;29.27;27.10;;;0.90;68.50;;;;;;5094131;28;20717;-72
2022/03/01 01:08:14;;;;;;;31.13;28.77;;;0.80;68.60;;;;;;5094005;28;20204;-72
2022/03/01 01:10:41;;;;;;;31.23;28.73;;;0.80;68.50;;;;;;5093730;28;20297;-72
2022/03/01 01:13:08;;;;;;;31.35;28.88;;;0.70;68.70;;;;;;5093994;28;20200;-72
2022/03/01 01:15:35;;;;;;;30.65;28.27;;;0.70;70.10;;;;;;5093848;28;20227;-72
2022/03/01 01:18:01;;;;;;;30.50;28.10;;;0.60;69.80;;;;;;5093753;28;20296;-72
2022/03/01 01:20:28;;;;;;;30.88;28.17;;;0.50;69.40;;;;;;5093446;28;20201;-72
2022/03/01 01:22:55;;;;;;;30.65;28.30;;;0.50;69.70;;;;;;5093691;28;20221;-72
2022/03/01 01:25:25;;;;;;;30.85;28.33;;;0.50;69.80;;;;;;5093471;28;20314;-72
2022/03/01 01:27:54;;;;;;;31.00;28.60;;;0.60;69.70;;;;;;5093498;28;20206;-72
2022/03/01 01:30:23;;;;;;;31.15;28.65;;;0.60;69.60;;;;;;5093298;28;20212;-72
2022/03/01 01:32:50;;;;;;;32.08;29.50;;;0.60;69.60;;;;;;5093522;28;20220;-72
2022/03/01 01:35:19;;;;;;;31.30;29.05;;;0.60;70.00;;;;;;5093190;28;20211;-72
2022/03/01 01:37:46;;;;;;;32.35;29.73;;;0.60;70.00;;;;;;5093353;28;20201;-72
2022/03/01 01:40:16;;;;;;;33.33;30.80;;;0.50;71.20;;;;;;5092027;28;20201;-72
2022/03/01 01:42:44;;;;;;;30.92;28.52;;;0.40;77.40;;;;;;5093375;28;20229;-72
2022/03/01 01:45:12;;;;;;;31.55;28.58;;;0.40;75.40;;;;;;5093408;28;20232;-72
2022/03/01 01:47:39;;;;;;;32.10;29.13;;;0.40;74.40;;;;;;5093293;28;20308;-72
2022/03/01 01:50:08;;;;;;;30.90;28.45;;;0.40;79.20;;;;;;5092962;28;20686;-72
2022/03/01 01:52:35;;;;;;;31.90;29.10;;;0.30;79.70;;;;;;5093169;28;20646;-72
2022/03/01 01:55:04;;;;;;;32.75;30.00;;;0.30;75.00;;;;;;5093131;28;20555;-72
2022/03/01 01:57:31;;;;;;;30.98;28.38;;;0.30;73.80;;;;;;5093060;28;20281;-71
2022/03/01 02:00:01;;;;;;;31.60;29.10;;;0.30;72.60;;;;;;5092781;28;20300;-72
2022/03/01 02:02:28;;;;;;;34.95;31.90;;;0.30;72.30;;;;;;5092978;28;20227;-72
2022/03/01 02:04:55;;;;;;;32.60;30.08;;;0.30;80.50;;;;;;5092895;28;20197;-72
2022/03/01 02:07:22;;;;;;;32.22;29.33;;;0.40;75.40;;;;;;5093019;28;20229;-72
2022/03/01 02:09:48;;;;;;;30.83;28.40;;;0.30;72.90;;;;;;5092815;28;20626;-71
2022/03/01 02:12:15;;;;;;;31.73;28.85;;;0.30;72.40;;;;;;5092929;28;20226;-72
2022/03/01 02:14:42;;;;;;;31.75;29.10;;;0.30;72.10;;;;;;5092811;28;20280;-71
2022/03/01 02:17:12;;;;;;;31.23;28.77;;;0.30;71.90;;;;;;5092719;28;20207;-72
2022/03/01 02:19:39;;;;;;;30.95;28.58;;;0.20;71.70;;;;;;5092620;28;20205;-72
2022/03/01 02:22:08;;;;;;;33.17;30.38;;;0.20;71.90;;;;;;5092736;28;20225;-72
2022/03/01 02:24:36;;;;;;;30.80;28.35;;;0.10;71.70;;;;;;5092696;28;20193;-72
2022/03/01 02:27:05;;;;;;;31.85;29.23;;;0.10;71.90;;;;;;5092701;28;20213;-72
2022/03/01 02:29:33;;;;;;;30.88;28.38;;;0.10;71.70;;;;;;5092342;28;20251;-72
2022/03/01 02:32:03;;;;;;;32.85;30.10;;;0.00;71.80;;;;;;5092681;28;20217;-72
2022/03/01 02:34:30;;;;;;;32.10;29.50;;;0.00;72.00;;;;;;5092732;28;20730;-72
2022/03/01 02:36:57;;;;;;;31.67;28.95;;;0.00;72.30;;;;;;5092739;28;20655;-72
2022/03/01 02:39:26;;;;;;;31.92;29.05;;;-0.10;72.40;;;;;;5092313;28;20225;-71
2022/03/01 02:41:53;;;;;;;32.67;29.77;;;0.00;71.90;;;;;;5092588;28;20248;-71
2022/03/01 02:44:20;;;;;;;31.17;28.58;;;0.00;71.80;;;;;;5092582;28;20236;-71
2022/03/01 02:46:47;;;;;;;31.77;29.13;;;-0.10;72.40;;;;;;5092466;28;20223;-72
2022/03/01 02:49:14;;;;;;;31.92;29.40;;;-0.20;72.50;;;;;;5092484;28;20627;-71
2022/03/01 02:51:41;;;;;;;33.20;30.15;;;-0.20;72.70;;;;;;5095600;28;20724;-72
2022/03/01 02:54:08;;;;;;;32.28;29.77;;;-0.30;72.70;;;;;;5096510;28;20207;-71
2022/03/01 02:56:38;;;;;;;32.72;30.08;;;-0.30;72.80;;;;;;5096615;28;20191;-72
2022/03/01 02:59:05;;;;;;;31.73;29.20;;;-0.30;72.80;;;;;;5096229;28;20662;-71
2022/03/01 03:01:32;;;;;;;31.65;29.15;;;-0.30;72.90;;;;;;5096443;28;20218;-72
2022/03/01 03:03:59;;;;;;;31.77;28.75;;;-0.30;77.90;;;;;;5096382;28;20201;-72
2022/03/01 03:06:27;;;;;;;33.08;30.08;;;-0.30;76.30;;;;;;5096227;28;20213;-72
2022/03/01 03:08:54;;;;;;;32.25;29.55;;;-0.30;74.60;;;;;;5096383;28;20200;-72
2022/03/01 03:11:21;;;;;;;33.90;31.00;;;-0.30;74.00;;;;;;5096060;28;20217;-72
2022/03/01 03:13:49;;;;;;;33.40;30.50;;;-0.30;73.40;;;;;;5096236;28;20208;-71
2022/03/01 03:16:17;;;;;;;32.42;29.67;;;-0.30;73.50;;;;;;5096150;28;20190;-72
2022/03/01 03:18:44;;;;;;;34.53;30.98;;;-0.30;73.50;;;;;;5096034;28;20197;-72
2022/03/01 03:21:11;;;;;;;33.88;31.15;;;-0.40;73.40;;;;;;5095881;28;20593;-71
2022/03/01 03:23:38;;;;;;;33.45;30.65;;;-0.40;73.50;;;;;;5096083;28;20658;-72
2022/03/01 03:26:06;;;;;;;32.15;29.42;;;-0.40;74.20;;;;;;5095767;28;20672;-72
2022/03/01 03:28:33;;;;;;;34.03;31.23;;;-0.40;74.10;;;;;;5095822;28;20283;-72
2022/03/01 03:31:01;;;;;;;32.95;30.33;;;-0.50;74.30;;;;;;5095583;28;20759;-72
2022/03/01 03:33:28;;;;;;;33.00;30.40;;;-0.50;74.30;;;;;;5095997;28;20201;-72
2022/03/01 03:35:56;;;;;;;33.97;31.17;;;-0.60;74.50;;;;;;5095731;28;20566;-72
2022/03/01 03:38:24;;;;;;;55.55;34.03;;;-0.60;74.60;;;;;;5095764;28;20213;-71
2022/03/01 03:40:51;;;;;;;32.70;30.00;;;-0.50;74.40;;;;;;5095372;28;20209;-72
2022/03/01 03:43:18;;;;;;;32.50;29.90;;;-0.50;77.40;;;;;;5095665;28;20201;-72
2022/03/01 03:45:45;;;;;;;34.65;31.67;;;-0.50;77.60;;;;;;5095653;28;20193;-72
2022/03/01 03:48:13;;;;;;;33.78;30.98;;;-0.50;76.40;;;;;;5095438;28;20716;-72
2022/03/01 03:50:40;;;;;;;33.35;30.75;;;-0.50;75.70;;;;;;5095318;28;20201;-72
2022/03/01 03:53:07;;;;;;;34.38;31.48;;;-0.50;75.20;;;;;;5095402;28;20203;-72
2022/03/01 03:55:34;;;;;;;36.45;33.50;;;-0.50;75.20;;;;;;5095437;28;20194;-72
2022/03/01 03:58:01;;;;;;;33.67;30.73;;;-0.60;75.30;;;;;;5095584;28;20288;-72
2022/03/01 04:00:28;;;;;;;34.25;31.15;;;-0.60;75.60;;;;;;5094971;28;20204;-72
2022/03/01 04:02:55;;;;;;;33.42;30.65;;;-0.60;77.20;;;;;;5094485;28;20540;-72
2022/03/01 04:05:23;;;;;;;33.70;30.55;;;-0.60;76.30;;;;;;5095082;28;20196;-72
2022/03/01 04:07:50;;;;;;;34.88;31.98;;;-0.50;75.80;;;;;;5095127;28;20307;-72
2022/03/01 04:10:18;;;;;;;34.78;31.55;;;-0.50;75.30;;;;;;5095066;28;20209;-72
2022/03/01 04:12:45;;;;;;;32.97;30.30;;;-0.70;75.60;;;;;;5095021;28;20275;-72
2022/03/01 04:15:12;;;;;;;36.35;33.50;;;-0.70;75.80;;;;;;5095154;28;20283;-72
2022/03/01 04:17:40;;;;;;;34.00;31.30;;;-0.60;75.60;;;;;;5094984;28;20219;-72
2022/03/01 04:20:08;;;;;;;34.17;31.20;;;-0.70;75.70;;;;;;5094709;28;20292;-72
2022/03/01 04:22:37;;;;;;;35.17;31.98;;;-0.80;75.70;;;;;;5094880;28;20305;-71
2022/03/01 04:25:07;;;;;;;33.90;30.98;;;-0.80;75.90;;;;;;5094826;28;20195;-72
2022/03/01 04:27:34;;;;;;;34.83;31.63;;;-0.70;75.50;;;;;;5094524;28;20632;-72
2022/03/01 04:30:01;;;;;;;34.33;31.42;;;-0.70;75.30;;;;;;5094482;28;20292;-72
2022/03/01 04:32:28;;;;;;;35.75;32.65;;;-0.80;75.60;;;;;;5094591;28;20217;-72
2022/03/01 04:34:55;;;;;;;36.55;33.70;;;-0.80;75.70;;;;;;5094533;28;20284;-72
2022/03/01 04:37:22;;;;;;;35.08;31.95;;;-0.80;75.70;;;;;;5094498;28;20718;-72
2022/03/01 04:39:50;;;;;;;33.90;31.20;;;-0.80;75.70;;;;;;5094232;28;20284;-72
2022/03/01 04:42:17;;;;;;;36.35;33.40;;;-0.80;75.70;;;;;;5094282;28;20651;-71
2022/03/01 04:44:44;;;;;;;34.10;31.40;;;-0.80;75.40;;;;;;5094403;28;20211;-72
2022/03/01 04:47:11;;;;;;;35.53;32.70;;;-0.80;75.30;;;;;;5094216;28;20221;-72
2022/03/01 04:49:38;;;;;;;34.80;31.83;;;-0.80;75.10;;;;;;5094178;28;20625;-71
2022/03/01 04:52:05;;;;;;;35.58;32.58;;;-0.80;75.20;;;;;;5094471;28;20212;-72
2022/03/01 04:54:33;;;;;;;36.00;32.88;;;-0.70;74.90;;;;;;5094284;28;20279;-72
2022/03/01 04:57:01;;;;;;;35.10;32.30;;;-0.80;75.10;;;;;;5094329;28;20724;-72
2022/03/01 04:59:28;;;;;;;36.08;32.90;;;-0.80;75.00;;;;;;5093818;28;20213;-72
2022/03/01 05:01:54;;;;;;;36.13;33.45;;;-0.90;75.20;;;;;;5094071;28;20217;-72
2022/03/01 05:04:22;;;;;;;33.63;31.02;;;-0.90;75.10;;;;;;5093978;28;20208;-72
2022/03/01 05:06:49;;;;;;;34.08;31.25;;;-0.80;74.90;;;;;;5093967;28;20199;-72
2022/03/01 05:09:16;;;;;;;34.83;32.22;;;-0.80;74.50;;;;;;5093820;28;20197;-72
2022/03/01 05:11:43;;;;;;;36.67;33.45;;;-0.80;74.20;;;;;;5093813;28;20621;-71
2022/03/01 05:14:11;;;;;;;35.05;32.17;;;-0.80;74.30;;;;;;5093556;28;20676;-72
2022/03/01 05:16:38;;;;;;;36.70;33.80;;;-0.90;74.60;;;;;;5093873;28;20198;-72
2022/03/01 05:19:06;;;;;;;37.15;33.85;;;-0.80;74.70;;;;;;5093710;28;20200;-72
2022/03/01 05:21:34;;;;;;;34.10;31.35;;;-0.90;74.80;;;;;;5093570;28;20220;-72
2022/03/01 05:24:01;;;;;;;36.17;33.33;;;-0.90;74.80;;;;;;5093686;28;20206;-72
2022/03/01 05:26:28;;;;;;;36.50;33.50;;;-0.90;74.60;;;;;;5093480;28;20200;-71
2022/03/01 05:28:55;;;;;;;34.50;31.55;;;-1.00;75.20;;;;;;5093276;28;20217;-72
2022/03/01 05:31:23;;;;;;;35.75;32.95;;;-1.00;75.30;;;;;;5093446;28;20224;-72
2022/03/01 05:33:52;;;;;;;33.47;30.67;;;-0.90;74.90;;;;;;5093569;28;20202;-72
2022/03/01 05:36:20;;;;;;;36.83;33.90;;;-0.90;74.80;;;;;;5093305;28;20211;-72
2022/03/01 05:38:47;;;;;;;36.58;33.30;;;-0.90;74.90;;;;;;5093587;28;20195;-72
2022/03/01 05:41:14;;;;;;;35.78;32.95;;;-1.00;75.10;;;;;;5093087;28;20312;-71
2022/03/01 05:43:41;;;;;;;33.15;30.65;;;-1.00;75.20;;;;;;5093448;28;20200;-72
2022/03/01 05:46:08;;;;;;;35.10;32.40;;;-1.00;75.30;;;;;;5093337;28;20197;-72
2022/03/01 05:48:36;;;;;;;34.13;31.42;;;-1.00;74.80;;;;;;5093247;28;20304;-71
2022/03/01 05:51:04;;;;;;;38.92;35.58;;;-1.00;74.90;;;;;;5093143;28;20303;-72
2022/03/01 05:53:34;;;;;;;35.00;32.10;;;-1.00;74.90;;;;;;5093388;28;20205;-71
2022/03/01 05:56:00;;;;;;;34.40;31.48;;;-1.00;75.00;;;;;;5093252;28;20207;-72
2022/03/01 05:58:27;;;;;;;35.25;32.33;;;-1.00;74.90;;;;;;5092885;28;20764;-72
2022/03/01 06:00:54;;;;;;;38.35;35.05;;;-1.00;75.30;;;;;;5092863;28;20593;-72
2022/03/01 06:03:21;;;;;;;39.20;35.53;;;-1.00;75.20;;;;;;5093160;28;20205;-72
2022/03/01 06:05:49;;;;;;;33.95;31.05;;;-1.00;75.70;;;;;;5093032;28;20197;-72
2022/03/01 06:08:16;;;;;;;35.55;32.55;;;-1.00;81.30;;;;;;5093495;28;20216;-72
2022/03/01 06:10:43;;;;;;;35.20;32.15;;;-1.00;78.20;;;;;;5092761;28;20666;-72
2022/03/01 06:13:10;;;;;;;34.28;31.25;;;-1.00;77.10;;;;;;5092872;28;20288;-71
2022/03/01 06:15:37;;;;;;;35.13;32.20;;;-1.00;76.70;;;;;;5092738;28;20579;-72
2022/03/01 06:18:04;;;;;;;38.03;34.95;;;-1.00;76.40;;;;;;5092065;28;20193;-72
2022/03/01 06:20:31;;;;;;;34.67;31.50;;;-1.00;76.10;;;;;;5092648;28;20568;-72
2022/03/01 06:22:59;;;;;;;35.03;32.03;;;-1.00;75.80;;;;;;5092539;28;20327;-72
2022/03/01 06:25:26;;;;;;;37.13;33.83;;;-0.90;75.70;;;;;;5091677;28;20285;-72
2022/03/01 06:27:53;;;;;;;34.78;31.77;;;-0.90;75.10;;;;;;5092572;28;20222;-72
2022/03/01 06:30:21;;;;;;;34.17;30.95;;;-0.90;75.10;;;;;;5092390;28;20197;-72
2022/03/01 06:32:48;;;;;;;36.97;34.15;;;-0.90;74.90;;;;;;5092767;28;20226;-72
2022/03/01 06:35:15;;;;;;;36.45;33.40;;;-0.90;74.80;;;;;;5092529;28;20284;-72
2022/03/01 06:37:42;;;;;;;34.13;31.42;;;-0.90;74.60;;;;;;5092594;28;20200;-72
2022/03/01 06:40:12;;;;;;;36.55;33.65;;;-0.90;74.50;;;;;;5092034;28;20731;-72
2022/03/01 06:42:39;;;;;;;38.53;35.33;;;-0.90;74.50;;;;;;5092604;28;20235;-72
2022/03/01 06:45:07;;;;;;;37.13;34.20;;;-0.90;74.90;;;;;;5092506;28;20634;-72
2022/03/01 06:47:35;;;;;;;36.53;33.42;;;-1.00;75.00;;;;;;5092554;28;20216;-72
2022/03/01 06:50:02;;;;;;;38.47;35.63;;;-0.80;74.80;;;;;;5092256;28;20196;-72
2022/03/01 06:52:31;;;;;;;36.53;33.63;;;-0.80;74.70;;;;;;5092318;28;20212;-72
2022/03/01 06:54:57;;;;;;;37.95;34.70;;;-0.70;74.80;;;;;;5092468;28;20288;-72
2022/03/01 06:57:26;;;;;;;36.70;33.45;;;-0.70;78.20;;;;;;5092361;28;20197;-72
2022/03/01 06:59:53;;;;;;;37.72;34.65;;;-0.60;76.20;;;;;;5092328;28;20203;-72
2022/03/01 07:02:20;;;;;;;37.20;34.30;;;-0.50;75.40;;;;;;5092461;28;20241;-72
2022/03/01 07:04:47;;;;;;;36.30;33.30;;;-0.50;74.20;;;;;;5092227;28;20203;-72
2022/03/01 07:07:14;;;;;;;37.28;34.08;;;-0.50;75.60;;;;;;5092259;28;20208;-72
2022/03/01 07:09:41;;;;;;;35.78;33.25;;;-0.40;74.30;;;;;;5092141;28;20254;-72
2022/03/01 07:12:09;;;;;;;38.42;35.47;;;-0.20;74.20;;;;;;5092232;28;20310;-72
2022/03/01 07:14:38;;;;;;;36.28;32.90;;;-0.10;73.20;;;;;;5092313;28;20235;-72
2022/03/01 07:17:05;;;;;;;37.30;34.17;;;0.00;72.20;;;;;;5092239;28;20209;-72
2022/03/01 07:19:35;;;;;;;36.45;33.45;;;0.00;72.00;;;;;;5092017;28;20284;-72
2022/03/01 07:22:02;;;;;;;38.00;34.90;;;0.00;73.40;;;;;;5092227;28;20722;-72
2022/03/01 07:24:35;;;;;;;36.97;33.60;;;0.00;71.60;;;;;;5092266;28;20280;-72
2022/03/01 07:27:03;;;;;;;36.85;33.75;;;0.10;71.50;;;;;;5092164;28;20198;-72
2022/03/01 07:29:30;;;;;;;37.28;34.42;;;0.10;71.10;;;;;;5091842;28;20218;-72
2022/03/01 07:31:59;;;;;;;36.83;33.72;;;0.10;71.10;;;;;;5091989;28;20632;-72
2022/03/01 07:34:26;;;;;;;36.60;33.67;;;0.30;70.30;;;;;;5091838;28;20570;-72
2022/03/01 07:36:54;;;;;;;38.10;34.60;;;0.40;70.20;;;;;;5093729;28;20609;-72
2022/03/01 07:39:21;;;;;;;39.35;35.97;;;0.50;69.90;;;;;;5095644;28;20237;-72
2022/03/01 07:41:48;;;;;;;35.28;32.38;;;0.50;73.40;;;;;;5095439;28;20758;-72
2022/03/01 07:44:15;;;;;;;37.42;34.13;;;0.60;72.90;;;;;;5095698;28;20562;-72
2022/03/01 07:46:42;;;;;;;35.40;32.58;;;0.80;70.60;;;;;;5095767;28;20235;-72
2022/03/01 07:49:10;;;;;;;34.72;31.92;;;0.80;68.90;;;;;;5095755;28;20229;-72
2022/03/01 07:51:37;;;;;;;36.65;33.45;;;0.90;69.40;;;;;;5095659;28;20217;-72
2022/03/01 07:54:04;;;;;;;36.53;33.30;;;0.90;71.10;;;;;;5095392;28;20658;-72
2022/03/01 07:56:33;;;;;;;35.60;32.50;;;1.20;69.20;;;;;;5095387;28;20280;-72
2022/03/01 07:59:00;;;;;;;34.95;31.95;;;1.30;68.70;;;;;;5095245;28;20282;-72
2022/03/01 08:01:27;;;;;;;36.28;33.33;;;1.40;66.20;;;;;;5095209;28;20623;-72
2022/03/01 08:03:54;;;;;;;35.55;32.38;;;1.40;65.60;;;;;;5095315;28;20206;-72
2022/03/01 08:06:22;;;;;;;34.40;31.45;;;1.40;63.80;;;;;;5095350;28;20280;-72
2022/03/01 08:08:49;;;;;;;32.85;30.20;;;1.50;63.60;;;;;;5095030;28;20311;-72
2022/03/01 08:11:16;;;;;;;32.85;30.30;;;1.60;61.70;;;;;;5094783;28;20301;-72
2022/03/01 08:13:43;;;;;;;35.67;32.78;;;1.60;61.70;;;;;;5095268;28;20289;-72
2022/03/01 08:16:10;;;;;;;34.10;31.15;;;1.90;61.40;;;;;;5095009;28;20255;-72
2022/03/01 08:18:38;;;;;;;33.42;30.65;;;2.10;60.90;;;;;;5094938;28;20282;-72
2022/03/01 08:21:06;;;;;;;34.63;31.80;;;2.20;59.70;;;;;;5094617;28;20261;-72
2022/03/01 08:23:36;;;;;;;35.75;32.70;;;2.20;59.30;;;;;;5095072;28;20238;-72
2022/03/01 08:26:04;;;;;;;31.80;29.38;;;2.10;59.70;;;;;;5094745;28;20203;-72
2022/03/01 08:28:33;;;;;;;38.20;30.98;;;2.20;59.00;;;;;;5094798;28;20215;-72
2022/03/01 08:31:01;;;;;;;34.28;31.48;;;2.40;58.70;;;;;;5094626;28;20801;-72
2022/03/01 08:33:29;;;;;;;32.72;30.25;;;2.50;57.70;;;;;;5094845;28;20213;-72
2022/03/01 08:35:56;;;;;;;33.33;30.52;;;2.50;57.50;;;;;;5094407;28;20260;-72
2022/03/01 08:38:24;;;;;;;32.67;30.17;;;2.50;57.70;;;;;;5094533;28;20194;-72
2022/03/01 08:40:53;;;;;;;33.72;31.02;;;2.60;57.00;;;;;;5093974;28;20556;-72
2022/03/01 08:43:21;;;;;;;33.35;30.95;;;2.60;57.30;;;;;;5094485;28;20559;-72
2022/03/01 08:45:49;;;;;;;37.15;34.05;;;2.90;56.90;;;;;;5094396;28;20204;-72
2022/03/01 08:48:16;;;;;;;32.78;30.02;;;2.90;56.30;;;;;;5094033;28;20305;-72
2022/03/01 08:50:43;;;;;;;35.95;33.00;;;2.90;56.50;;;;;;5094396;28;20269;-72
2022/03/01 08:53:11;;;;;;;32.55;30.05;;;3.00;58.30;;;;;;5094363;28;20273;-72
2022/03/01 08:55:38;;;;;;;32.92;30.42;;;3.10;56.60;;;;;;5094455;28;20201;-72
2022/03/01 08:58:07;;;;;;;34.33;31.52;;;3.00;55.90;;;;;;5094200;28;20203;-72
2022/03/01 09:00:34;;;;;;;35.33;32.28;;;2.90;56.00;;;;;;5093992;28;20206;-72
2022/03/01 09:03:01;;;;;;;35.13;32.15;;;2.90;56.20;;;;;;5094157;28;20626;-72
2022/03/01 09:05:28;;;;;;;34.72;31.83;;;3.00;56.20;;;;;;5093988;28;20287;-72
2022/03/01 09:07:55;;;;;;;32.45;30.02;;;3.10;55.60;;;;;;5094152;28;20229;-72
2022/03/01 09:10:23;;;;;;;33.92;31.13;;;3.20;55.30;;;;;;5093824;28;20640;-72
2022/03/01 09:12:51;;;;;;;33.53;31.02;;;3.20;54.60;;;;;;5093819;28;20248;-72
2022/03/01 09:15:20;;;;;;;32.72;30.20;;;3.30;54.90;;;;;;5093961;28;20197;-72
2022/03/01 09:17:50;;;;;;;33.70;31.38;;;3.50;54.70;;;;;;5093789;28;20226;-72
2022/03/01 09:20:17;;;;;;;32.92;30.45;;;3.50;53.90;;;;;;5093719;28;20188;-72
2022/03/01 09:22:44;;;;;;;32.47;30.15;;;3.70;53.60;;;;;;5093715;28;20217;-72
2022/03/01 09:25:11;;;;;;;33.40;30.90;;;3.90;53.30;;;;;;5093659;28;20204;-72
2022/03/01 09:27:38;;;;;;;32.40;29.90;;;4.10;52.70;;;;;;5093649;28;20287;-72
2022/03/01 09:30:06;;;;;;;33.65;31.10;;;4.00;52.80;;;;;;5093400;28;20781;-72
2022/03/01 09:32:35;;;;;;;35.10;32.70;;;4.00;52.80;;;;;;5093595;28;20763;-72
2022/03/01 09:35:02;;;;;;;32.47;30.08;;;4.00;52.90;;;;;;5093316;28;20193;-72
2022/03/01 09:37:31;;;;;;;31.35;29.02;;;4.20;52.90;;;;;;5093683;28;20233;-72
2022/03/01 09:39:58;;;;;;;32.17;29.42;;;4.30;52.70;;;;;;5093316;28;20250;-72
2022/03/01 09:42:27;;;;;;;33.40;30.90;;;4.30;52.00;;;;;;5093401;28;20249;-72
2022/03/01 09:44:54;;;;;;;33.63;31.08;;;4.40;52.20;;;;;;5093455;28;20200;-72
2022/03/01 09:47:21;;;;;;;32.70;30.30;;;4.50;52.10;;;;;;5093280;28;20201;-72
2022/03/01 09:49:50;;;;;;;31.95;29.45;;;4.50;51.90;;;;;;5093119;28;20302;-72
2022/03/01 09:52:18;;;;;;;31.95;29.55;;;4.70;51.50;;;;;;5093244;28;20717;-70
2022/03/01 09:54:45;;;;;;;30.65;28.50;;;4.60;50.90;;;;;;5093159;28;20291;-70
2022/03/01 09:57:14;;;;;;;31.70;29.13;;;4.60;51.10;;;;;;5093076;28;20725;-70
2022/03/01 09:59:41;;;;;;;32.03;29.77;;;4.50;51.30;;;;;;5092083;28;20204;-72
2022/03/01 10:02:09;;;;;;;34.33;31.75;;;4.60;50.90;;;;;;5092808;28;20220;-72
2022/03/01 10:04:38;;;;;;;32.15;29.70;;;4.70;51.10;;;;;;5093070;28;20200;-72
2022/03/01 10:07:11;;;;;;;32.13;29.83;;;4.80;50.90;;;;;;5092907;28;20204;-72
2022/03/01 10:09:42;;;;;;;33.50;30.92;;;5.00;50.40;;;;;;5092892;28;20704;-72
2022/03/01 10:12:09;;;;;;;31.40;29.10;;;5.00;50.40;;;;;;5092941;28;20707;-72
2022/03/01 10:14:37;;;;;;;33.20;30.70;;;5.00;50.30;;;;;;5092968;28;20658;-72
2022/03/01 10:17:12;;;;;;;33.22;30.42;;;5.00;49.50;;;;;;5092884;28;20288;-72
2022/03/01 10:19:39;;;;;;;32.40;29.98;;;5.00;49.70;;;;;;5092769;28;20216;-72
2022/03/01 10:22:07;;;;;;;32.88;30.27;;;5.10;49.50;;;;;;5092849;28;20222;-72
2022/03/01 10:24:34;;;;;;;32.10;29.60;;;5.20;49.40;;;;;;5092742;28;20194;-72
2022/03/01 10:27:05;;;;;;;33.60;31.00;;;5.10;48.90;;;;;;5092729;28;20201;-72
2022/03/01 10:29:33;;;;;;;34.15;31.83;;;5.20;48.80;;;;;;5092534;28;20352;-72
2022/03/01 10:32:11;;;;;;;32.53;30.05;;;5.20;48.90;;;;;;5092977;28;20320;-72
2022/03/01 10:34:38;;;;;;;31.67;29.38;;;5.30;48.60;;;;;;5092702;28;20281;-72
2022/03/01 10:37:06;;;;;;;32.00;29.50;;;5.30;48.50;;;;;;5092632;28;20307;-72
2022/03/01 10:39:34;;;;;;;30.85;28.55;;;5.40;48.60;;;;;;5092348;28;20201;-72
2022/03/01 10:42:05;;;;;;;32.95;30.42;;;5.50;48.40;;;;;;5092607;28;20214;-72
2022/03/01 10:44:32;;;;;;;30.77;28.35;;;5.60;48.10;;;;;;5092710;28;20225;-72
2022/03/01 10:47:02;;;;;;;33.15;30.65;;;5.70;48.10;;;;;;5092588;28;20200;-73
2022/03/01 10:49:31;;;;;;;30.98;28.58;;;5.80;47.60;;;;;;5092275;28;20221;-72
2022/03/01 10:51:59;;;;;;;31.80;29.35;;;5.90;47.20;;;;;;5092482;28;20220;-72
2022/03/01 10:54:30;;;;;;;32.95;30.73;;;6.00;47.10;;;;;;5092568;28;20739;-72
2022/03/01 10:56:58;;;;;;;31.75;29.38;;;6.00;46.70;;;;;;5092556;28;20198;-72
2022/03/01 10:59:26;;;;;;;34.00;31.40;;;6.20;46.50;;;;;;5092099;28;20589;-72
2022/03/01 11:01:54;;;;;;;32.38;29.98;;;6.20;46.30;;;;;;5092479;28;20221;-72
2022/03/01 11:04:22;;;;;;;32.58;30.08;;;6.20;46.20;;;;;;5092304;28;20686;-72
2022/03/01 11:06:49;;;;;;;34.15;31.30;;;6.30;45.90;;;;;;5092295;28;20230;-72
2022/03/01 11:09:17;;;;;;;33.17;30.35;;;6.30;45.80;;;;;;5092101;28;20218;-72
2022/03/01 11:11:48;;;;;;;31.95;29.65;;;6.30;45.80;;;;;;5093664;28;20313;-72
2022/03/01 11:14:19;;;;;;;32.47;29.98;;;6.20;45.40;;;;;;5096307;28;20212;-72
2022/03/01 11:16:54;;;;;;;32.25;29.85;;;6.20;45.30;;;;;;5096125;28;20198;-72
2022/03/01 11:19:38;;;;;;;33.22;31.02;;;6.10;46.00;;;;;;5096133;28;20196;-72
2022/03/01 11:22:07;;;;;;;31.83;29.15;;;6.30;45.70;;;;;;5096193;28;20219;-72
2022/03/01 11:24:34;;;;;;;31.23;29.02;;;6.30;46.20;;;;;;5096062;28;20364;-72
2022/03/01 11:27:07;;;;;;;32.25;29.85;;;6.50;45.80;;;;;;5095996;28;20210;-72
2022/03/01 11:29:39;;;;;;;31.63;29.30;;;6.70;45.30;;;;;;5095549;28;20309;-72
2022/03/01 11:32:12;;;;;;;31.02;28.50;;;6.70;44.50;;;;;;5095963;28;20222;-72
2022/03/01 11:34:40;;;;;;;31.92;29.63;;;6.60;44.40;;;;;;5095801;28;20659;-72
2022/03/01 11:37:15;;;;;;;31.98;29.67;;;6.70;44.50;;;;;;5095902;28;20256;-70
2022/03/01 11:39:42;;;;;;;31.67;29.25;;;6.90;44.30;;;;;;5095363;28;20201;-71
2022/03/01 11:42:14;;;;;;;32.72;30.23;;;7.10;44.00;;;;;;5095726;28;20629;-71
2022/03/01 11:44:42;;;;;;;33.20;30.80;;;7.20;43.80;;;;;;5095777;28;20208;-73
2022/03/01 11:47:22;;;;;;;34.13;31.25;;;7.40;43.50;;;;;;5095674;28;20204;-70
2022/03/01 11:49:49;;;;;;;32.08;29.77;;;7.50;43.50;;;;;;5095325;28;20305;-70
2022/03/01 11:52:18;;;;;;;33.92;31.13;;;7.50;45.10;;;;;;5095444;28;20298;-70
2022/03/01 11:54:47;;;;;;;33.42;30.92;;;7.60;49.50;;;;;;5095554;28;20200;-70
2022/03/01 11:57:15;;;;;;;32.28;29.98;;;7.80;46.50;;;;;;5095508;28;20238;-71
2022/03/01 11:59:43;;;;;;;32.30;29.80;;;8.00;45.20;;;;;;5095056;28;20225;-70
2022/03/01 12:02:11;;;;;;;32.05;29.65;;;8.10;43.20;;;;;;5095976;28;20262;-70
2022/03/01 12:04:46;;;;;;;33.38;30.98;;;8.30;43.00;;;;;;5095575;28;20275;-72
2022/03/01 12:07:18;;;;;;;31.50;29.15;;;8.40;43.60;;;;;;5095591;28;20604;-70
2022/03/01 12:09:55;;;;;;;31.60;29.30;;;8.60;41.50;;;;;;5095166;28;20221;-70
2022/03/01 12:12:33;;;;;;;32.40;30.17;;;8.70;42.60;;;;;;5095303;28;20238;-70
2022/03/01 12:14:59;;;;;;;32.60;30.13;;;8.80;40.30;;;;;;5095333;28;20257;-70
2022/03/01 12:17:26;;;;;;;31.98;29.65;;;8.70;40.50;;;;;;5095142;28;20282;-70
2022/03/01 12:20:00;;;;;;;30.67;28.48;;;8.70;38.90;;;;;;5094802;28;20657;-70
2022/03/01 12:22:27;;;;;;;30.17;27.98;;;8.70;39.20;;;;;;5094668;28;20219;-70
2022/03/01 12:24:57;;;;;;;31.55;29.15;;;8.80;37.30;;;;;;5094275;28;20249;-70
2022/03/01 12:27:31;;;;;;;31.63;29.27;;;8.70;38.00;;;;;;5095014;28;20251;-71
2022/03/01 12:30:02;;;;;;;30.15;28.05;;;8.70;40.80;;;;;;5094547;28;20211;-70
2022/03/01 12:32:29;;;;;;;32.55;30.15;;;8.90;40.70;;;;;;5094923;28;20258;-70
2022/03/01 12:35:01;;;;;;;31.52;29.20;;;9.00;40.20;;;;;;5094766;28;20197;-70
2022/03/01 12:37:29;;;;;;;30.17;28.00;;;9.10;37.20;;;;;;5094745;28;20282;-70